TAM3192 SBSP-SBPS
Flight info
| Callsign | TAM3192 |
|---|---|
| Flight time | 1h 29m |
| Altitude | 37000 |
| Route | BAIAN3B VUMEV UZ14 KALOP DCT PULKU DCT OSUNO OSUNO1A |
| Aircraft | A320/M-SDE3FGHIRWY/LB1 |
Departure
| Time | 2026-05-05 17:41 |
|---|---|
| Airport | Congonhas–Deputado Freitas Nobre Airport (SBSP) |
Arrival
| Time | 2026-05-05 19:10 |
|---|---|
| Airport | Porto Seguro International Airport (SBPS) |
| Time | Latitude | Longitude | Altitude | Speed | Heading |
|---|---|---|---|---|---|
| 2026-05-05 17:29 | -23.62481 | -46.65987 | 2600 ft | 0 kts | 237° |
| 2026-05-05 17:34 | -23.62474 | -46.65976 | 2600 ft | 4 kts | 245° |
| 2026-05-05 17:34 | -23.62469 | -46.65949 | 2600 ft | 4 kts | 287° |
| 2026-05-05 17:34 | -23.62479 | -46.65932 | 2600 ft | 0 kts | 327° |
| 2026-05-05 17:38 | -23.62474 | -46.65935 | 2600 ft | 4 kts | 330° |
| 2026-05-05 17:38 | -23.62405 | -46.65955 | 2601 ft | 12 kts | 346° |
| 2026-05-05 17:39 | -23.62310 | -46.66000 | 2600 ft | 12 kts | 329° |
| 2026-05-05 17:39 | -23.62217 | -46.66058 | 2599 ft | 17 kts | 333° |
| 2026-05-05 17:39 | -23.62112 | -46.66127 | 2593 ft | 16 kts | 327° |
| 2026-05-05 17:39 | -23.62049 | -46.66080 | 2591 ft | 10 kts | 121° |
| 2026-05-05 17:40 | -23.62062 | -46.66068 | 2587 ft | 0 kts | 140° |
| 2026-05-05 17:40 | -23.62066 | -46.66064 | 2588 ft | 5 kts | 142° |
| 2026-05-05 17:40 | -23.62294 | -46.65900 | 2600 ft | 80 kts | 147° |
| 2026-05-05 17:40 | -23.62970 | -46.65430 | 2613 ft | 147 kts | 140° |
| 2026-05-05 17:41 | -23.63899 | -46.64744 | 3024 ft | 167 kts | 139° |
| 2026-05-05 17:41 | -23.64869 | -46.64021 | 3789 ft | 172 kts | 143° |
| 2026-05-05 17:41 | -23.65674 | -46.62998 | 4065 ft | 191 kts | 117° |
| 2026-05-05 17:41 | -23.66311 | -46.61630 | 4211 ft | 214 kts | 112° |
| 2026-05-05 17:42 | -23.66966 | -46.60054 | 4342 ft | 243 kts | 114° |
| 2026-05-05 17:42 | -23.67716 | -46.58293 | 4626 ft | 267 kts | 115° |
| 2026-05-05 17:42 | -23.68560 | -46.56450 | 5284 ft | 274 kts | 117° |
| 2026-05-05 17:42 | -23.69451 | -46.54599 | 6077 ft | 277 kts | 118° |
| 2026-05-05 17:43 | -23.70365 | -46.52741 | 6872 ft | 279 kts | 119° |
| 2026-05-05 17:43 | -23.71253 | -46.50843 | 7610 ft | 283 kts | 112° |
| 2026-05-05 17:43 | -23.71748 | -46.48756 | 8356 ft | 287 kts | 96° |
| 2026-05-05 17:43 | -23.71713 | -46.46568 | 9118 ft | 291 kts | 82° |
| 2026-05-05 17:44 | -23.71391 | -46.44380 | 9878 ft | 294 kts | 82° |
| 2026-05-05 17:44 | -23.71069 | -46.42159 | 10518 ft | 301 kts | 81° |
| 2026-05-05 17:44 | -23.70734 | -46.39816 | 10708 ft | 324 kts | 82° |
| 2026-05-05 17:44 | -23.70380 | -46.37314 | 11033 ft | 340 kts | 82° |
| 2026-05-05 17:45 | -23.70017 | -46.34744 | 11627 ft | 345 kts | 81° |
| 2026-05-05 17:45 | -23.69648 | -46.32142 | 12281 ft | 349 kts | 81° |
| 2026-05-05 17:45 | -23.69276 | -46.29513 | 12945 ft | 352 kts | 81° |
| 2026-05-05 17:45 | -23.68900 | -46.26854 | 13584 ft | 356 kts | 81° |
| 2026-05-05 17:46 | -23.68517 | -46.24176 | 14194 ft | 359 kts | 81° |
| 2026-05-05 17:46 | -23.68128 | -46.21468 | 14742 ft | 363 kts | 81° |
| 2026-05-05 17:46 | -23.67732 | -46.18740 | 15286 ft | 366 kts | 80° |
| 2026-05-05 17:46 | -23.67023 | -46.16062 | 15815 ft | 370 kts | 68° |
| 2026-05-05 17:47 | -23.65744 | -46.13613 | 16339 ft | 375 kts | 54° |
| 2026-05-05 17:47 | -23.63950 | -46.11532 | 16867 ft | 379 kts | 40° |
| 2026-05-05 17:47 | -23.61730 | -46.09952 | 17383 ft | 384 kts | 27° |
| 2026-05-05 17:47 | -23.59334 | -46.08631 | 17885 ft | 387 kts | 27° |
| 2026-05-05 17:48 | -23.56920 | -46.07303 | 18420 ft | 390 kts | 27° |
| 2026-05-05 17:48 | -23.54521 | -46.05976 | 18840 ft | 394 kts | 27° |
| 2026-05-05 17:48 | -23.52072 | -46.04613 | 19278 ft | 397 kts | 27° |
| 2026-05-05 17:48 | -23.49602 | -46.03239 | 19730 ft | 400 kts | 27° |
| 2026-05-05 17:49 | -23.47116 | -46.01856 | 20179 ft | 403 kts | 27° |
| 2026-05-05 17:49 | -23.44571 | -46.00567 | 20602 ft | 406 kts | 20° |
| 2026-05-05 17:49 | -23.41839 | -45.99754 | 21023 ft | 409 kts | 9° |
| 2026-05-05 17:49 | -23.39003 | -45.99484 | 21444 ft | 411 kts | 1° |
| 2026-05-05 17:50 | -23.36131 | -45.99395 | 21871 ft | 414 kts | 1° |
| 2026-05-05 17:50 | -23.33243 | -45.99299 | 22132 ft | 417 kts | 1° |
| 2026-05-05 17:50 | -23.30339 | -45.99196 | 22170 ft | 417 kts | 1° |
| 2026-05-05 17:50 | -23.27442 | -45.99089 | 22177 ft | 417 kts | 1° |
| 2026-05-05 17:51 | -23.24540 | -45.98981 | 22281 ft | 419 kts | 1° |
| 2026-05-05 17:51 | -23.21617 | -45.98876 | 22741 ft | 421 kts | 1° |
| 2026-05-05 17:51 | -23.18678 | -45.98775 | 23162 ft | 424 kts | 1° |
| 2026-05-05 17:51 | -23.15723 | -45.98675 | 23577 ft | 426 kts | 1° |
| 2026-05-05 17:52 | -23.12749 | -45.98573 | 23947 ft | 429 kts | 1° |
| 2026-05-05 17:52 | -23.09755 | -45.98469 | 24284 ft | 432 kts | 1° |
| 2026-05-05 17:52 | -23.06743 | -45.98365 | 24607 ft | 435 kts | 1° |
| 2026-05-05 17:52 | -23.03708 | -45.98259 | 24948 ft | 437 kts | 1° |
| 2026-05-05 17:53 | -23.00660 | -45.98152 | 25287 ft | 440 kts | 1° |
| 2026-05-05 17:53 | -22.97596 | -45.98045 | 25610 ft | 442 kts | 1° |
| 2026-05-05 17:53 | -22.94513 | -45.97940 | 25951 ft | 444 kts | 1° |
| 2026-05-05 17:53 | -22.91426 | -45.97636 | 26271 ft | 447 kts | 9° |
| 2026-05-05 17:54 | -22.88412 | -45.96762 | 26585 ft | 451 kts | 20° |
| 2026-05-05 17:54 | -22.85568 | -45.95317 | 26885 ft | 453 kts | 31° |
| 2026-05-05 17:54 | -22.82942 | -45.93406 | 27155 ft | 456 kts | 36° |
| 2026-05-05 17:54 | -22.80334 | -45.91421 | 27450 ft | 459 kts | 35° |
| 2026-05-05 17:55 | -22.77708 | -45.89436 | 27748 ft | 462 kts | 35° |
| 2026-05-05 17:55 | -22.75066 | -45.87447 | 28060 ft | 464 kts | 35° |
| 2026-05-05 17:55 | -22.72404 | -45.85450 | 28374 ft | 466 kts | 34° |
| 2026-05-05 17:55 | -22.69730 | -45.83450 | 28669 ft | 469 kts | 34° |
| 2026-05-05 17:56 | -22.67040 | -45.81436 | 28948 ft | 471 kts | 35° |
| 2026-05-05 17:56 | -22.64341 | -45.79411 | 29232 ft | 474 kts | 34° |
| 2026-05-05 17:56 | -22.61627 | -45.77374 | 29518 ft | 476 kts | 34° |
| 2026-05-05 17:56 | -22.58937 | -45.75354 | 29788 ft | 478 kts | 34° |
| 2026-05-05 17:57 | -22.56194 | -45.73296 | 30062 ft | 480 kts | 34° |
| 2026-05-05 17:57 | -22.53442 | -45.71230 | 30306 ft | 483 kts | 35° |
| 2026-05-05 17:57 | -22.50678 | -45.69155 | 30496 ft | 485 kts | 34° |
| 2026-05-05 17:57 | -22.47898 | -45.67073 | 30711 ft | 487 kts | 34° |
| 2026-05-05 17:58 | -22.45108 | -45.64983 | 30923 ft | 489 kts | 34° |
| 2026-05-05 17:58 | -22.42309 | -45.62885 | 31160 ft | 490 kts | 34° |
| 2026-05-05 17:58 | -22.39509 | -45.60787 | 31465 ft | 489 kts | 34° |
| 2026-05-05 17:58 | -22.36712 | -45.58693 | 31757 ft | 489 kts | 34° |
| 2026-05-05 17:59 | -22.33911 | -45.56600 | 32059 ft | 489 kts | 34° |
| 2026-05-05 17:59 | -22.31114 | -45.54512 | 32356 ft | 489 kts | 34° |
| 2026-05-05 17:59 | -22.28320 | -45.52429 | 32649 ft | 488 kts | 34° |
| 2026-05-05 17:59 | -22.25526 | -45.50346 | 32915 ft | 488 kts | 34° |
| 2026-05-05 18:00 | -22.22729 | -45.48261 | 33174 ft | 488 kts | 34° |
| 2026-05-05 18:00 | -22.19930 | -45.46176 | 33453 ft | 489 kts | 34° |
| 2026-05-05 18:00 | -22.17133 | -45.44094 | 33730 ft | 489 kts | 34° |
| 2026-05-05 18:00 | -22.14335 | -45.42007 | 34005 ft | 489 kts | 33° |
| 2026-05-05 18:01 | -22.11537 | -45.39922 | 34283 ft | 489 kts | 33° |
| 2026-05-05 18:01 | -22.08737 | -45.37837 | 34529 ft | 489 kts | 33° |
| 2026-05-05 18:01 | -22.05940 | -45.35758 | 34753 ft | 488 kts | 34° |
| 2026-05-05 18:01 | -22.03146 | -45.33666 | 34964 ft | 489 kts | 35° |
| 2026-05-05 18:02 | -22.00411 | -45.31494 | 35180 ft | 489 kts | 37° |
| 2026-05-05 18:02 | -21.97727 | -45.29237 | 35372 ft | 490 kts | 38° |
| 2026-05-05 18:02 | -21.95074 | -45.26932 | 35568 ft | 490 kts | 39° |
| 2026-05-05 18:02 | -21.92434 | -45.24615 | 35773 ft | 490 kts | 39° |
| 2026-05-05 18:03 | -21.89781 | -45.22306 | 35939 ft | 491 kts | 38° |
| 2026-05-05 18:03 | -21.87108 | -45.20013 | 36116 ft | 491 kts | 38° |
| 2026-05-05 18:03 | -21.84423 | -45.17742 | 36300 ft | 491 kts | 37° |
| 2026-05-05 18:03 | -21.81727 | -45.15483 | 36499 ft | 491 kts | 37° |
| 2026-05-05 18:04 | -21.79032 | -45.13235 | 36686 ft | 491 kts | 37° |
| 2026-05-05 18:04 | -21.76334 | -45.10984 | 36866 ft | 491 kts | 37° |
| 2026-05-05 18:04 | -21.73639 | -45.08729 | 37031 ft | 491 kts | 37° |
| 2026-05-05 18:04 | -21.70950 | -45.06473 | 37162 ft | 491 kts | 37° |
| 2026-05-05 18:05 | -21.68258 | -45.04212 | 37181 ft | 491 kts | 38° |
| 2026-05-05 18:05 | -21.62886 | -44.99697 | 37181 ft | 490 kts | 37° |
| 2026-05-05 18:06 | -21.57512 | -44.95190 | 37179 ft | 490 kts | 37° |
| 2026-05-05 18:06 | -21.52165 | -44.90720 | 37181 ft | 490 kts | 37° |
| 2026-05-05 18:07 | -21.46791 | -44.86207 | 37178 ft | 490 kts | 37° |
| 2026-05-05 18:07 | -21.41417 | -44.81706 | 37161 ft | 490 kts | 37° |
| 2026-05-05 18:08 | -21.36030 | -44.77210 | 37175 ft | 491 kts | 37° |
| 2026-05-05 18:08 | -21.30640 | -44.72712 | 37179 ft | 491 kts | 37° |
| 2026-05-05 18:09 | -21.25257 | -44.68220 | 37183 ft | 490 kts | 37° |
| 2026-05-05 18:09 | -21.19873 | -44.63731 | 37168 ft | 490 kts | 37° |
| 2026-05-05 18:10 | -21.14487 | -44.59241 | 37183 ft | 491 kts | 37° |
| 2026-05-05 18:10 | -21.09092 | -44.54757 | 37188 ft | 491 kts | 37° |
| 2026-05-05 18:11 | -21.03702 | -44.50282 | 37191 ft | 490 kts | 37° |
| 2026-05-05 18:11 | -20.98311 | -44.45807 | 37189 ft | 490 kts | 37° |
| 2026-05-05 18:12 | -20.92924 | -44.41334 | 37195 ft | 490 kts | 37° |
| 2026-05-05 18:12 | -20.87542 | -44.36865 | 37194 ft | 490 kts | 37° |
| 2026-05-05 18:13 | -20.82154 | -44.32412 | 37181 ft | 489 kts | 37° |
| 2026-05-05 18:13 | -20.76769 | -44.27960 | 37180 ft | 489 kts | 37° |
| 2026-05-05 18:14 | -20.71385 | -44.23517 | 37177 ft | 489 kts | 37° |
| 2026-05-05 18:14 | -20.66002 | -44.19078 | 37179 ft | 489 kts | 37° |
| 2026-05-05 18:15 | -20.61069 | -44.14109 | 37183 ft | 488 kts | 47° |
| 2026-05-05 18:15 | -20.56446 | -44.08797 | 37174 ft | 488 kts | 47° |
| 2026-05-05 18:16 | -20.51808 | -44.03502 | 37176 ft | 489 kts | 47° |
| 2026-05-05 18:16 | -20.47164 | -43.98205 | 37175 ft | 489 kts | 47° |
| 2026-05-05 18:17 | -20.42526 | -43.92903 | 37178 ft | 489 kts | 47° |
| 2026-05-05 18:17 | -20.37892 | -43.87597 | 37189 ft | 489 kts | 47° |
| 2026-05-05 18:18 | -20.33250 | -43.82293 | 37198 ft | 489 kts | 47° |
| 2026-05-05 18:18 | -20.28634 | -43.77029 | 37184 ft | 489 kts | 47° |
| 2026-05-05 18:19 | -20.24735 | -43.72601 | 37184 ft | 489 kts | 47° |
| 2026-05-05 18:19 | -20.19314 | -43.66456 | 37184 ft | 490 kts | 47° |
| 2026-05-05 18:20 | -20.15416 | -43.62020 | 37193 ft | 490 kts | 47° |
| 2026-05-05 18:20 | -20.10763 | -43.56725 | 37180 ft | 490 kts | 46° |
| 2026-05-05 18:21 | -20.06106 | -43.51441 | 37183 ft | 490 kts | 47° |
| 2026-05-05 18:21 | -20.01436 | -43.46158 | 37183 ft | 490 kts | 46° |
| 2026-05-05 18:22 | -19.96798 | -43.40907 | 37186 ft | 490 kts | 46° |
| 2026-05-05 18:22 | -19.92137 | -43.35626 | 37175 ft | 490 kts | 46° |
| 2026-05-05 18:23 | -19.87470 | -43.30357 | 37176 ft | 490 kts | 46° |
| 2026-05-05 18:23 | -19.82800 | -43.25089 | 37170 ft | 490 kts | 46° |
| 2026-05-05 18:24 | -19.78128 | -43.19820 | 37179 ft | 490 kts | 46° |
| 2026-05-05 18:24 | -19.73457 | -43.14555 | 37162 ft | 490 kts | 46° |
| 2026-05-05 18:25 | -19.68784 | -43.09284 | 37170 ft | 490 kts | 46° |
| 2026-05-05 18:25 | -19.64104 | -43.04019 | 37174 ft | 491 kts | 46° |
| 2026-05-05 18:26 | -19.59418 | -42.98758 | 37173 ft | 491 kts | 46° |
| 2026-05-05 18:26 | -19.54734 | -42.93498 | 37177 ft | 490 kts | 46° |
| 2026-05-05 18:27 | -19.50054 | -42.88240 | 37180 ft | 490 kts | 46° |
| 2026-05-05 18:27 | -19.45370 | -42.82990 | 37179 ft | 490 kts | 46° |
| 2026-05-05 18:28 | -19.38343 | -42.75133 | 37174 ft | 489 kts | 46° |
| 2026-05-05 18:28 | -19.33657 | -42.69906 | 37174 ft | 489 kts | 46° |
| 2026-05-05 18:29 | -19.28973 | -42.64677 | 37171 ft | 489 kts | 46° |
| 2026-05-05 18:29 | -19.24299 | -42.59446 | 37184 ft | 489 kts | 46° |
| 2026-05-05 18:30 | -19.19615 | -42.54222 | 37180 ft | 489 kts | 46° |
| 2026-05-05 18:30 | -19.14935 | -42.49011 | 37178 ft | 488 kts | 46° |
| 2026-05-05 18:31 | -19.10369 | -42.43777 | 37167 ft | 488 kts | 52° |
| 2026-05-05 18:31 | -19.06482 | -42.37903 | 37167 ft | 487 kts | 55° |
| 2026-05-05 18:32 | -19.02624 | -42.32013 | 37150 ft | 487 kts | 55° |
| 2026-05-05 18:32 | -18.98754 | -42.26131 | 37139 ft | 487 kts | 55° |
| 2026-05-05 18:33 | -18.94884 | -42.20252 | 37146 ft | 488 kts | 55° |
| 2026-05-05 18:33 | -18.91020 | -42.14364 | 37150 ft | 488 kts | 55° |
| 2026-05-05 18:34 | -18.87158 | -42.08477 | 37153 ft | 487 kts | 55° |
| 2026-05-05 18:34 | -18.83284 | -42.02610 | 37135 ft | 487 kts | 55° |
| 2026-05-05 18:35 | -18.79416 | -41.96743 | 37144 ft | 487 kts | 54° |
| 2026-05-05 18:35 | -18.75551 | -41.90871 | 37143 ft | 487 kts | 55° |
| 2026-05-05 18:36 | -18.71688 | -41.85014 | 37134 ft | 487 kts | 54° |
| 2026-05-05 18:36 | -18.67814 | -41.79157 | 37133 ft | 486 kts | 54° |
| 2026-05-05 18:37 | -18.63939 | -41.73307 | 37125 ft | 487 kts | 54° |
| 2026-05-05 18:37 | -18.60065 | -41.67453 | 37129 ft | 487 kts | 54° |
| 2026-05-05 18:38 | -18.56190 | -41.61597 | 37133 ft | 487 kts | 54° |
| 2026-05-05 18:38 | -18.52309 | -41.55743 | 37152 ft | 487 kts | 54° |
| 2026-05-05 18:39 | -18.48424 | -41.49899 | 37133 ft | 487 kts | 54° |
| 2026-05-05 18:39 | -18.44544 | -41.44056 | 37139 ft | 486 kts | 54° |
| 2026-05-05 18:40 | -18.40669 | -41.38225 | 37143 ft | 486 kts | 54° |
| 2026-05-05 18:40 | -18.36793 | -41.32396 | 37152 ft | 486 kts | 54° |
| 2026-05-05 18:41 | -18.32917 | -41.26572 | 37148 ft | 486 kts | 54° |
| 2026-05-05 18:41 | -18.29033 | -41.20758 | 37138 ft | 485 kts | 54° |
| 2026-05-05 18:42 | -18.25151 | -41.14951 | 37138 ft | 485 kts | 54° |
| 2026-05-05 18:42 | -18.21265 | -41.09137 | 37141 ft | 486 kts | 54° |
| 2026-05-05 18:43 | -18.17385 | -41.03323 | 37144 ft | 486 kts | 54° |
| 2026-05-05 18:43 | -18.13492 | -40.97515 | 37138 ft | 486 kts | 54° |
| 2026-05-05 18:44 | -18.09604 | -40.91708 | 37136 ft | 486 kts | 54° |
| 2026-05-05 18:44 | -18.05717 | -40.85899 | 37133 ft | 486 kts | 54° |
| 2026-05-05 18:45 | -18.01855 | -40.80133 | 37138 ft | 486 kts | 53° |
| 2026-05-05 18:45 | -17.97960 | -40.74337 | 37139 ft | 486 kts | 53° |
| 2026-05-05 18:46 | -17.94056 | -40.68544 | 37139 ft | 486 kts | 53° |
| 2026-05-05 18:46 | -17.90163 | -40.62751 | 37127 ft | 486 kts | 53° |
| 2026-05-05 18:47 | -17.86262 | -40.56959 | 37128 ft | 486 kts | 53° |
| 2026-05-05 18:47 | -17.82352 | -40.51173 | 37134 ft | 486 kts | 53° |
| 2026-05-05 18:48 | -17.78445 | -40.45378 | 37142 ft | 486 kts | 53° |
| 2026-05-05 18:48 | -17.74544 | -40.39588 | 37142 ft | 486 kts | 53° |
| 2026-05-05 18:49 | -17.70637 | -40.33802 | 36093 ft | 488 kts | 53° |
| 2026-05-05 18:49 | -17.68656 | -40.30873 | 34847 ft | 493 kts | 53° |
| 2026-05-05 18:49 | -17.66673 | -40.27945 | 33855 ft | 491 kts | 52° |
| 2026-05-05 18:50 | -17.64708 | -40.25045 | 32909 ft | 484 kts | 52° |
| 2026-05-05 18:50 | -17.62774 | -40.22191 | 32031 ft | 477 kts | 52° |
| 2026-05-05 18:50 | -17.60869 | -40.19377 | 31196 ft | 469 kts | 52° |
| 2026-05-05 18:50 | -17.58994 | -40.16606 | 30381 ft | 462 kts | 52° |
| 2026-05-05 18:51 | -17.57149 | -40.13879 | 29481 ft | 456 kts | 52° |
| 2026-05-05 18:51 | -17.55325 | -40.11189 | 28553 ft | 449 kts | 52° |
| 2026-05-05 18:51 | -17.53527 | -40.08544 | 27703 ft | 442 kts | 52° |
| 2026-05-05 18:51 | -17.51756 | -40.05937 | 26869 ft | 436 kts | 52° |
| 2026-05-05 18:52 | -17.50008 | -40.03368 | 26030 ft | 430 kts | 53° |
| 2026-05-05 18:52 | -17.48283 | -40.00833 | 25216 ft | 425 kts | 53° |
| 2026-05-05 18:52 | -17.46579 | -39.98327 | 24426 ft | 420 kts | 53° |
| 2026-05-05 18:52 | -17.44881 | -39.95859 | 23637 ft | 415 kts | 50° |
| 2026-05-05 18:53 | -17.42901 | -39.93712 | 22773 ft | 407 kts | 37° |
| 2026-05-05 18:53 | -17.40603 | -39.92086 | 22256 ft | 391 kts | 26° |
| 2026-05-05 18:53 | -17.38234 | -39.90805 | 21820 ft | 377 kts | 25° |
| 2026-05-05 18:53 | -17.35942 | -39.89567 | 21392 ft | 365 kts | 25° |
| 2026-05-05 18:54 | -17.33724 | -39.88362 | 20978 ft | 353 kts | 26° |
| 2026-05-05 18:54 | -17.31575 | -39.87193 | 20573 ft | 344 kts | 26° |
| 2026-05-05 18:54 | -17.29479 | -39.86058 | 20178 ft | 336 kts | 26° |
| 2026-05-05 18:54 | -17.27404 | -39.84936 | 19788 ft | 335 kts | 26° |
| 2026-05-05 18:55 | -17.25340 | -39.83819 | 19403 ft | 333 kts | 27° |
| 2026-05-05 18:55 | -17.23285 | -39.82708 | 19022 ft | 331 kts | 27° |
| 2026-05-05 18:55 | -17.21242 | -39.81601 | 18640 ft | 330 kts | 27° |
| 2026-05-05 18:55 | -17.19201 | -39.80496 | 18234 ft | 331 kts | 27° |
| 2026-05-05 18:56 | -17.17155 | -39.79390 | 17834 ft | 331 kts | 28° |
| 2026-05-05 18:56 | -17.15108 | -39.78287 | 17441 ft | 331 kts | 28° |
| 2026-05-05 18:56 | -17.13090 | -39.77198 | 17079 ft | 331 kts | 28° |
| 2026-05-05 18:56 | -17.11047 | -39.76094 | 16705 ft | 331 kts | 28° |
| 2026-05-05 18:57 | -17.09002 | -39.74989 | 16333 ft | 331 kts | 28° |
| 2026-05-05 18:57 | -17.06956 | -39.73887 | 15957 ft | 331 kts | 28° |
| 2026-05-05 18:57 | -17.04909 | -39.72785 | 15592 ft | 331 kts | 29° |
| 2026-05-05 18:57 | -17.02862 | -39.71680 | 15212 ft | 331 kts | 30° |
| 2026-05-05 18:58 | -17.00846 | -39.70530 | 14837 ft | 330 kts | 32° |
| 2026-05-05 18:58 | -16.98871 | -39.69313 | 14462 ft | 330 kts | 33° |
| 2026-05-05 18:58 | -16.96909 | -39.68059 | 14085 ft | 330 kts | 34° |
| 2026-05-05 18:58 | -16.94956 | -39.66795 | 13676 ft | 330 kts | 33° |
| 2026-05-05 18:59 | -16.93006 | -39.65542 | 13297 ft | 329 kts | 33° |
| 2026-05-05 18:59 | -16.91060 | -39.64305 | 12929 ft | 326 kts | 33° |
| 2026-05-05 18:59 | -16.89123 | -39.63082 | 12558 ft | 324 kts | 33° |
| 2026-05-05 18:59 | -16.87199 | -39.61873 | 12190 ft | 322 kts | 32° |
| 2026-05-05 19:00 | -16.85287 | -39.60675 | 11832 ft | 320 kts | 33° |
| 2026-05-05 19:00 | -16.83390 | -39.59485 | 11469 ft | 318 kts | 33° |
| 2026-05-05 19:00 | -16.81502 | -39.58300 | 11109 ft | 315 kts | 33° |
| 2026-05-05 19:00 | -16.79629 | -39.57125 | 10759 ft | 313 kts | 33° |
| 2026-05-05 19:01 | -16.77769 | -39.55959 | 10397 ft | 311 kts | 33° |
| 2026-05-05 19:01 | -16.75941 | -39.54813 | 10264 ft | 301 kts | 33° |
| 2026-05-05 19:01 | -16.74168 | -39.53699 | 10017 ft | 295 kts | 34° |
| 2026-05-05 19:01 | -16.72526 | -39.52433 | 9657 ft | 293 kts | 39° |
| 2026-05-05 19:02 | -16.70911 | -39.51148 | 9285 ft | 291 kts | 39° |
| 2026-05-05 19:02 | -16.69306 | -39.49878 | 8916 ft | 289 kts | 39° |
| 2026-05-05 19:02 | -16.67701 | -39.48610 | 8532 ft | 288 kts | 39° |
| 2026-05-05 19:02 | -16.66107 | -39.47352 | 8166 ft | 287 kts | 39° |
| 2026-05-05 19:03 | -16.64516 | -39.46098 | 7797 ft | 285 kts | 39° |
| 2026-05-05 19:03 | -16.62933 | -39.44850 | 7435 ft | 284 kts | 39° |
| 2026-05-05 19:03 | -16.61361 | -39.43606 | 7059 ft | 283 kts | 39° |
| 2026-05-05 19:03 | -16.59803 | -39.42372 | 6729 ft | 280 kts | 40° |
| 2026-05-05 19:04 | -16.58253 | -39.41147 | 6397 ft | 279 kts | 39° |
| 2026-05-05 19:04 | -16.56712 | -39.39931 | 6067 ft | 277 kts | 39° |
| 2026-05-05 19:04 | -16.55175 | -39.38719 | 5752 ft | 276 kts | 39° |
| 2026-05-05 19:04 | -16.53646 | -39.37513 | 5435 ft | 275 kts | 39° |
| 2026-05-05 19:05 | -16.52186 | -39.36255 | 5121 ft | 269 kts | 49° |
| 2026-05-05 19:05 | -16.51135 | -39.34715 | 4818 ft | 261 kts | 65° |
| 2026-05-05 19:05 | -16.50689 | -39.33544 | 4615 ft | 255 kts | 76° |
| 2026-05-05 19:05 | -16.50058 | -39.31159 | 4026 ft | 257 kts | 77° |
| 2026-05-05 19:06 | -16.49592 | -39.29416 | 3793 ft | 249 kts | 76° |
| 2026-05-05 19:06 | -16.49133 | -39.27700 | 3574 ft | 243 kts | 77° |
| 2026-05-05 19:06 | -16.48679 | -39.26012 | 3287 ft | 241 kts | 77° |
| 2026-05-05 19:06 | -16.48235 | -39.24365 | 2999 ft | 230 kts | 77° |
| 2026-05-05 19:07 | -16.47815 | -39.22807 | 2744 ft | 218 kts | 77° |
| 2026-05-05 19:07 | -16.47543 | -39.21800 | 2579 ft | 210 kts | 77° |
| 2026-05-05 19:07 | -16.47165 | -39.20402 | 2362 ft | 196 kts | 78° |
| 2026-05-05 19:07 | -16.46699 | -39.18683 | 2087 ft | 170 kts | 78° |
| 2026-05-05 19:08 | -16.46488 | -39.17910 | 1941 ft | 160 kts | 79° |
| 2026-05-05 19:08 | -16.46199 | -39.16842 | 1750 ft | 151 kts | 79° |
| 2026-05-05 19:08 | -16.45915 | -39.15787 | 1553 ft | 149 kts | 78° |
| 2026-05-05 19:08 | -16.45640 | -39.14753 | 1338 ft | 148 kts | 79° |
| 2026-05-05 19:09 | -16.45365 | -39.13734 | 1111 ft | 146 kts | 78° |
| 2026-05-05 19:09 | -16.45089 | -39.12724 | 920 ft | 144 kts | 77° |
| 2026-05-05 19:09 | -16.44812 | -39.11726 | 789 ft | 142 kts | 77° |
| 2026-05-05 19:09 | -16.44549 | -39.10719 | 650 ft | 144 kts | 79° |
| 2026-05-05 19:10 | -16.44296 | -39.09711 | 375 ft | 143 kts | 81° |
| 2026-05-05 19:10 | -16.44009 | -39.08699 | 171 ft | 145 kts | 79° |
| 2026-05-05 19:10 | -16.43785 | -39.07839 | 161 ft | 86 kts | 75° |
| 2026-05-05 19:10 | -16.43680 | -39.07448 | 163 ft | 46 kts | 75° |
| 2026-05-05 19:11 | -16.43636 | -39.07263 | 161 ft | 14 kts | 100° |
| 2026-05-05 19:11 | -16.43638 | -39.07201 | 160 ft | 8 kts | 49° |
| 2026-05-05 19:11 | -16.43617 | -39.07221 | 160 ft | 4 kts | 255° |
| 2026-05-05 19:11 | -16.43623 | -39.07243 | 161 ft | 2 kts | 254° |
| 2026-05-05 19:12 | -16.43641 | -39.07307 | 162 ft | 17 kts | 251° |
| 2026-05-05 19:12 | -16.43678 | -39.07433 | 163 ft | 18 kts | 255° |
| 2026-05-05 19:12 | -16.43710 | -39.07567 | 162 ft | 20 kts | 253° |
| 2026-05-05 19:12 | -16.43725 | -39.07623 | 162 ft | 1 kts | 255° |
| 2026-05-05 19:13 | -16.43736 | -39.07659 | 162 ft | 13 kts | 251° |
| 2026-05-05 19:13 | -16.43763 | -39.07769 | 162 ft | 16 kts | 256° |
| 2026-05-05 19:13 | -16.43794 | -39.07887 | 160 ft | 18 kts | 254° |
| 2026-05-05 19:14 | -16.43832 | -39.08018 | 159 ft | 20 kts | 253° |
| 2026-05-05 19:14 | -16.43868 | -39.08131 | 159 ft | 13 kts | 231° |
| 2026-05-05 19:14 | -16.43949 | -39.08127 | 160 ft | 13 kts | 165° |
| 2026-05-05 19:14 | -16.44012 | -39.08109 | 160 ft | 8 kts | 164° |
| 2026-05-05 19:15 | -16.44035 | -39.08102 | 160 ft | 3 kts | 163° |
| 2026-05-05 19:15 | -16.44049 | -39.08098 | 160 ft | 1 kts | 165° |
| 2026-05-05 19:15 | -16.44055 | -39.08096 | 160 ft | 0 kts | 165° |
| 2026-05-05 19:15 | -16.44058 | -39.08096 | 160 ft | 1 kts | 165° |
| 2026-05-05 19:16 | -16.44059 | -39.08095 | 160 ft | 0 kts | 165° |
| 2026-05-05 19:20 | -16.44060 | -39.08095 | 160 ft | 0 kts | 165° |